createdAt,value
2023-07-29T00:00:39.804Z,950.1704102
2023-07-29T00:01:41.515Z,950.1951294
2023-07-29T00:02:42.492Z,950.192749
2023-07-29T00:03:43.470Z,950.203125
2023-07-29T00:04:44.403Z,950.1791992
2023-07-29T00:05:45.837Z,950.2229614
2023-07-29T00:06:46.995Z,950.1973267
2023-07-29T00:07:48.159Z,950.1749878
2023-07-29T00:08:49.207Z,950.1716919
2023-07-29T00:09:50.273Z,950.1743164
2023-07-29T00:10:51.291Z,950.184082
2023-07-29T00:11:52.299Z,950.1900024
2023-07-29T00:12:53.248Z,950.1907959
2023-07-29T00:13:55.000Z,950.1898193
2023-07-29T00:14:56.085Z,950.1497803
2023-07-29T00:15:57.808Z,950.1417236
2023-07-29T00:16:58.939Z,950.142334
2023-07-29T00:18:30.493Z,950.1514282
2023-07-29T00:19:31.597Z,950.09729
2023-07-29T00:20:32.598Z,950.0731201
2023-07-29T00:21:33.697Z,949.9877319
2023-07-29T00:22:35.323Z,949.9877319
2023-07-29T00:23:36.242Z,949.9593506
2023-07-29T00:24:37.309Z,949.9840698
2023-07-29T00:25:38.367Z,950.0029907
2023-07-29T00:26:40.367Z,949.9315796
2023-07-29T00:27:41.369Z,949.9317017
2023-07-29T00:28:42.407Z,949.8996582
2023-07-29T00:29:43.255Z,949.8545532
2023-07-29T00:30:44.984Z,949.8965454
2023-07-29T00:31:46.030Z,949.9559326
2023-07-29T00:32:48.137Z,949.993042
2023-07-29T00:33:49.061Z,949.963623
2023-07-29T00:34:49.935Z,950.0081177
2023-07-29T00:35:51.803Z,949.9992065
2023-07-29T00:36:53.011Z,949.9960327
2023-07-29T00:37:54.061Z,949.9723511
2023-07-29T00:38:55.074Z,949.9998169
2023-07-29T00:39:56.071Z,949.9544678
2023-07-29T00:40:57.038Z,949.9259644
2023-07-29T00:41:57.942Z,949.9233398
2023-07-29T00:42:59.427Z,949.8881836
2023-07-29T00:44:30.996Z,949.8953857
2023-07-29T00:45:31.986Z,949.9043579
2023-07-29T00:46:34.334Z,949.9101563
2023-07-29T00:47:34.795Z,949.9520264
2023-07-29T00:48:35.973Z,949.9987793
2023-07-29T00:49:36.918Z,950.0228271
2023-07-29T00:50:38.046Z,949.9626465
2023-07-29T00:51:39.101Z,949.9421997
2023-07-29T00:52:40.104Z,949.9719238
2023-07-29T00:53:41.804Z,949.9693604
2023-07-29T00:54:42.816Z,949.9712524
2023-07-29T00:55:44.116Z,949.9525757
2023-07-29T00:56:45.928Z,949.9631348
2023-07-29T00:57:47.044Z,950.0322876
2023-07-29T00:58:48.070Z,950.0413818
2023-07-29T00:59:49.009Z,950.0841675
2023-07-29T01:00:50.893Z,950.0751343
2023-07-29T01:01:52.931Z,950.0736084
2023-07-29T01:02:54.067Z,950.074585
2023-07-29T01:03:55.199Z,950.0990601
2023-07-29T01:04:55.945Z,950.06073
2023-07-29T01:05:56.922Z,950.1105957
2023-07-29T01:06:59.423Z,950.2531738
2023-07-29T01:08:31.010Z,950.354126
2023-07-29T01:09:32.060Z,950.4001465
2023-07-29T01:10:33.083Z,950.4142456
2023-07-29T01:11:34.095Z,950.480957
2023-07-29T01:12:35.055Z,950.5393677
2023-07-29T01:13:36.228Z,950.5441895
2023-07-29T01:14:37.413Z,950.6052856
2023-07-29T01:15:38.592Z,950.536377
2023-07-29T01:16:40.450Z,950.571228
2023-07-29T01:17:41.414Z,950.5424194
2023-07-29T01:18:42.335Z,950.5745239
2023-07-29T01:19:43.429Z,950.5525513
2023-07-29T01:20:44.503Z,950.5335693
2023-07-29T01:21:45.540Z,950.4891968
2023-07-29T01:22:46.455Z,950.4681396
2023-07-29T01:23:47.391Z,950.4508057
2023-07-29T01:24:48.473Z,950.4714355
2023-07-29T01:25:49.493Z,950.430603
2023-07-29T01:26:51.413Z,950.4281006
2023-07-29T01:27:52.556Z,950.4710693
2023-07-29T01:28:53.419Z,950.4880981
2023-07-29T01:29:55.403Z,950.4714355
2023-07-29T01:30:56.965Z,950.4434204
2023-07-29T01:31:58.089Z,950.4439087
2023-07-29T01:33:30.146Z,950.4589233
2023-07-29T01:34:31.127Z,950.4307251
2023-07-29T01:35:32.030Z,950.4316406
2023-07-29T01:36:34.007Z,950.3640747
2023-07-29T01:37:34.916Z,950.2979126
2023-07-29T01:38:35.991Z,950.2947388
2023-07-29T01:39:37.025Z,950.2131348
2023-07-29T01:40:38.121Z,950.1794434
2023-07-29T01:41:39.123Z,950.1003418
2023-07-29T01:42:40.058Z,950.1456299
2023-07-29T01:43:41.069Z,950.0880737
2023-07-29T01:44:42.096Z,950.1182861
2023-07-29T01:45:43.305Z,950.1127319
2023-07-29T01:46:45.393Z,950.0880737
2023-07-29T01:47:46.437Z,950.107666
2023-07-29T01:48:47.403Z,950.0862427
2023-07-29T01:49:48.395Z,950.0831299
2023-07-29T01:50:49.460Z,950.0906372
2023-07-29T01:51:50.559Z,950.0932617
2023-07-29T01:52:51.743Z,950.1271362
2023-07-29T01:53:52.640Z,950.1305542
2023-07-29T01:54:53.626Z,950.1387329
2023-07-29T01:55:54.676Z,950.2341919
2023-07-29T01:56:56.375Z,950.1690674
2023-07-29T01:57:57.445Z,950.1298218
2023-07-29T01:58:58.850Z,950.1884155
2023-07-29T02:00:30.838Z,950.1286011
2023-07-29T02:01:32.558Z,950.2521973
2023-07-29T02:02:33.410Z,950.3557739
2023-07-29T02:03:34.527Z,950.4578247
2023-07-29T02:04:35.563Z,950.5601807
2023-07-29T02:05:36.487Z,950.7133789
2023-07-29T02:06:38.674Z,950.9185181
2023-07-29T02:07:39.329Z,950.9734497
2023-07-29T02:08:40.426Z,950.7411499
2023-07-29T02:09:41.465Z,950.3812256
2023-07-29T02:10:42.491Z,950.3320313
2023-07-29T02:11:43.409Z,950.3831787
2023-07-29T02:12:44.472Z,950.2577515
2023-07-29T02:13:45.492Z,950.0911865
2023-07-29T02:14:46.602Z,950.1942139
2023-07-29T02:15:47.694Z,950.3671875
2023-07-29T02:16:49.443Z,950.5736084
2023-07-29T02:17:50.309Z,950.6272583
2023-07-29T02:18:53.630Z,950.6896973
2023-07-29T02:19:52.240Z,950.7129517
2023-07-29T02:20:53.327Z,950.7821655
2023-07-29T02:21:54.426Z,950.8178101
2023-07-29T02:22:55.460Z,950.6796875
2023-07-29T02:23:56.415Z,950.5473633
2023-07-29T02:24:57.376Z,950.5022583
2023-07-29T02:25:58.843Z,950.416626
2023-07-29T02:27:31.423Z,950.4140015
2023-07-29T02:28:32.643Z,950.3240356
2023-07-29T02:29:33.619Z,950.2837524
2023-07-29T02:30:34.818Z,950.3375244
2023-07-29T02:31:36.398Z,950.3406372
2023-07-29T02:32:37.451Z,950.307251
2023-07-29T02:33:38.335Z,950.2792358
2023-07-29T02:34:39.338Z,950.2988892
2023-07-29T02:35:40.375Z,950.3267212
2023-07-29T02:36:41.865Z,950.3242188
2023-07-29T02:37:42.863Z,950.2979126
2023-07-29T02:38:44.350Z,950.28479
2023-07-29T02:39:45.430Z,950.2650146
2023-07-29T02:40:46.523Z,950.2003174
2023-07-29T02:41:47.534Z,950.2134399
2023-07-29T02:42:48.549Z,950.2545166
2023-07-29T02:43:49.474Z,950.2808838
2023-07-29T02:44:50.492Z,950.2684326
2023-07-29T02:45:51.605Z,950.3292236
2023-07-29T02:46:53.444Z,950.333252
2023-07-29T02:47:54.664Z,950.3114624
2023-07-29T02:48:55.481Z,950.3129883
2023-07-29T02:49:56.552Z,950.3449707
2023-07-29T02:50:57.484Z,950.382019
2023-07-29T02:52:29.263Z,950.4229736
2023-07-29T02:53:30.326Z,950.4173584
2023-07-29T02:54:31.432Z,950.4115601
2023-07-29T02:55:32.392Z,950.4731445
2023-07-29T02:56:33.316Z,950.4806519
2023-07-29T02:57:34.868Z,950.442627
2023-07-29T02:58:36.088Z,950.4682007
2023-07-29T02:59:37.238Z,950.513916
2023-07-29T03:00:38.864Z,950.5310669
2023-07-29T03:01:40.417Z,950.5023193
2023-07-29T03:02:41.469Z,950.499939
2023-07-29T03:03:42.564Z,950.5187378
2023-07-29T03:04:43.321Z,950.553772
2023-07-29T03:05:44.367Z,950.5504761
2023-07-29T03:06:45.836Z,950.5939331
2023-07-29T03:07:47.372Z,950.5560913
2023-07-29T03:08:48.302Z,950.5535278
2023-07-29T03:09:49.229Z,950.5412598
2023-07-29T03:10:50.286Z,950.5165405
2023-07-29T03:11:51.350Z,950.4875488
2023-07-29T03:12:52.376Z,950.451416
2023-07-29T03:13:53.419Z,950.4185181
2023-07-29T03:14:54.371Z,950.4070435
2023-07-29T03:15:55.336Z,950.4020386
2023-07-29T03:16:56.963Z,950.4266968
2023-07-29T03:17:58.436Z,950.4677124
2023-07-29T03:19:29.838Z,950.4818115
2023-07-29T03:20:30.710Z,950.4644775
2023-07-29T03:21:31.705Z,950.4545288
2023-07-29T03:22:32.775Z,950.4660645
2023-07-29T03:23:33.839Z,950.4628296
2023-07-29T03:24:34.827Z,950.4266968
2023-07-29T03:25:35.774Z,950.4068604
2023-07-29T03:26:37.592Z,950.439209
2023-07-29T03:27:38.921Z,950.4241943
2023-07-29T03:28:40.002Z,950.4018555
2023-07-29T03:29:42.043Z,950.4636841
2023-07-29T03:30:43.008Z,950.5049438
2023-07-29T03:31:44.942Z,950.5427856
2023-07-29T03:32:45.934Z,950.5253906
2023-07-29T03:33:46.940Z,950.5212402
2023-07-29T03:34:47.913Z,950.4890747
2023-07-29T03:35:49.434Z,950.4643555
2023-07-29T03:36:50.385Z,950.4735718
2023-07-29T03:37:51.818Z,950.4621582
2023-07-29T03:38:52.733Z,950.4309082
2023-07-29T03:39:53.770Z,950.453064
2023-07-29T03:40:54.860Z,950.4556274
2023-07-29T03:41:55.923Z,950.4539795
2023-07-29T03:42:56.864Z,950.420166
2023-07-29T03:43:58.239Z,950.427002
2023-07-29T03:45:29.725Z,950.4351807
2023-07-29T03:46:30.733Z,950.4006958
2023-07-29T03:47:32.444Z,950.3761597
2023-07-29T03:48:33.491Z,950.3516235
2023-07-29T03:49:34.397Z,950.3763428
2023-07-29T03:50:35.342Z,950.3596802
2023-07-29T03:51:36.328Z,950.385498
2023-07-29T03:52:37.455Z,950.3927612
2023-07-29T03:53:38.610Z,950.4347534
2023-07-29T03:54:39.612Z,950.4216919
2023-07-29T03:55:40.597Z,950.4093628
2023-07-29T03:56:41.501Z,950.3963013
2023-07-29T03:57:43.582Z,950.3948364
2023-07-29T03:58:44.526Z,950.4160156
2023-07-29T03:59:45.623Z,950.437561
2023-07-29T04:00:47.447Z,950.4654541
2023-07-29T04:01:48.944Z,950.4664307
2023-07-29T04:02:49.953Z,950.4806519
2023-07-29T04:03:50.962Z,950.4740601
2023-07-29T04:04:52.053Z,950.4854126
2023-07-29T04:05:53.134Z,950.4606934
2023-07-29T04:06:54.020Z,950.4361572
2023-07-29T04:07:55.839Z,950.4500732
2023-07-29T04:08:56.865Z,950.4436035
2023-07-29T04:10:28.648Z,950.4667969
2023-07-29T04:11:29.667Z,950.4603882
2023-07-29T04:12:30.756Z,950.453064
2023-07-29T04:13:31.712Z,950.4678345
2023-07-29T04:14:32.633Z,950.432373
2023-07-29T04:15:34.483Z,950.4367065
2023-07-29T04:16:35.951Z,950.4646606
2023-07-29T04:17:37.508Z,950.4554443
2023-07-29T04:18:38.676Z,950.4595947
2023-07-29T04:19:39.699Z,950.4388428
2023-07-29T04:20:40.634Z,950.4437256
2023-07-29T04:21:41.806Z,950.4347534
2023-07-29T04:22:42.854Z,950.4559937
2023-07-29T04:23:44.247Z,950.5006104
2023-07-29T04:24:45.249Z,950.4998169
2023-07-29T04:25:46.192Z,950.496582
2023-07-29T04:26:47.212Z,950.5597534
2023-07-29T04:27:48.932Z,950.5449829
2023-07-29T04:28:49.959Z,950.5632935
2023-07-29T04:29:51.137Z,950.5911865
2023-07-29T04:30:52.946Z,950.5893555
2023-07-29T04:31:53.992Z,950.6149292
2023-07-29T04:32:55.008Z,950.6264038
2023-07-29T04:33:56.077Z,950.6143799
2023-07-29T04:34:57.616Z,950.6020508
2023-07-29T04:36:29.174Z,950.5692749
2023-07-29T04:37:30.921Z,950.5930176
2023-07-29T04:38:31.927Z,950.5964355
2023-07-29T04:39:32.966Z,950.6010742
2023-07-29T04:40:34.025Z,950.5742188
2023-07-29T04:41:36.003Z,950.6498413
2023-07-29T04:42:37.058Z,950.6141357
2023-07-29T04:43:38.159Z,950.6141357
2023-07-29T04:44:39.102Z,950.6447754
2023-07-29T04:45:40.252Z,950.6587524
2023-07-29T04:46:41.289Z,950.6766968
2023-07-29T04:47:42.988Z,950.6065674
2023-07-29T04:48:44.264Z,950.6279907
2023-07-29T04:49:45.225Z,950.621582
2023-07-29T04:50:46.218Z,950.6453247
2023-07-29T04:51:47.241Z,950.6367798
2023-07-29T04:52:48.289Z,950.6373291
2023-07-29T04:53:49.339Z,950.6842041
2023-07-29T04:54:50.353Z,950.6797485
2023-07-29T04:55:51.271Z,950.7232666
2023-07-29T04:56:52.265Z,950.7243652
2023-07-29T04:57:53.941Z,950.6807861
2023-07-29T04:58:55.051Z,950.6422119
2023-07-29T04:59:56.104Z,950.6635742
2023-07-29T05:00:58.444Z,950.6724854
2023-07-29T05:02:29.913Z,950.664856
2023-07-29T05:03:31.037Z,950.6467896
2023-07-29T05:04:32.204Z,950.6671143
2023-07-29T05:05:33.265Z,950.6621704
2023-07-29T05:06:34.598Z,950.6726685
2023-07-29T05:07:35.495Z,950.6217041
2023-07-29T05:08:37.509Z,950.5988159
2023-07-29T05:09:38.624Z,950.6126709
2023-07-29T05:10:39.701Z,950.6095581
2023-07-29T05:11:40.724Z,950.5896606
2023-07-29T05:12:41.652Z,950.5993652
2023-07-29T05:13:42.670Z,950.6328125
2023-07-29T05:14:43.947Z,950.6757813
2023-07-29T05:15:45.066Z,950.6896362
2023-07-29T05:16:46.102Z,950.6781006
2023-07-29T05:17:47.216Z,950.7331543
2023-07-29T05:18:48.974Z,950.7109985
2023-07-29T05:19:49.958Z,950.7224731
2023-07-29T05:20:50.956Z,950.7053223
2023-07-29T05:21:52.067Z,950.703125
2023-07-29T05:22:53.147Z,950.729248
2023-07-29T05:23:54.272Z,950.7597046
2023-07-29T05:24:55.280Z,950.7752075
2023-07-29T05:25:56.307Z,950.7907104
2023-07-29T05:27:28.153Z,950.8178101
2023-07-29T05:28:30.155Z,950.8186035
2023-07-29T05:29:31.272Z,950.7856445
2023-07-29T05:30:32.250Z,950.7958374
2023-07-29T05:31:33.911Z,950.8036499
2023-07-29T05:32:35.016Z,950.8462524
2023-07-29T05:33:36.126Z,950.8632202
2023-07-29T05:34:37.222Z,950.8484497
2023-07-29T05:35:38.513Z,950.8148193
2023-07-29T05:36:40.459Z,950.8139038
2023-07-29T05:37:41.446Z,950.802124
2023-07-29T05:38:43.389Z,950.7792358
2023-07-29T05:39:44.597Z,950.7931519
2023-07-29T05:40:45.669Z,950.7849121
2023-07-29T05:41:46.776Z,950.789978
2023-07-29T05:42:47.768Z,950.774353
2023-07-29T05:43:48.764Z,950.7380981
2023-07-29T05:44:49.737Z,950.8066406
2023-07-29T05:45:50.869Z,950.7653198
2023-07-29T05:46:52.107Z,950.7866211
2023-07-29T05:47:53.193Z,950.7804565
2023-07-29T05:48:54.892Z,950.7750244
2023-07-29T05:49:55.922Z,950.7921753
2023-07-29T05:51:27.781Z,950.7608032
2023-07-29T05:52:28.934Z,950.7276611
2023-07-29T05:53:30.039Z,950.7687378
2023-07-29T05:54:31.115Z,950.7522583
2023-07-29T05:55:32.130Z,950.7340698
2023-07-29T05:56:33.172Z,950.7443848
2023-07-29T05:57:35.025Z,950.7440796
2023-07-29T05:58:36.230Z,950.7542725
2023-07-29T05:59:37.354Z,950.7628174
2023-07-29T06:00:38.511Z,950.7792969
2023-07-29T06:01:39.494Z,950.7593994
2023-07-29T06:02:40.551Z,950.7758789
2023-07-29T06:03:41.706Z,950.8150024
2023-07-29T06:04:42.768Z,950.7938232
2023-07-29T06:05:44.190Z,950.8183594
2023-07-29T06:06:45.186Z,950.8323975
2023-07-29T06:07:46.280Z,950.8075562
2023-07-29T06:08:48.028Z,950.828125
2023-07-29T06:09:49.066Z,950.7971802
2023-07-29T06:10:50.384Z,950.8283081
2023-07-29T06:11:52.675Z,950.8676758
2023-07-29T06:12:52.351Z,950.8312378
2023-07-29T06:13:53.300Z,950.8407593
2023-07-29T06:14:54.466Z,950.8261108
2023-07-29T06:15:55.593Z,950.8168945
2023-07-29T06:17:27.496Z,950.8103027
2023-07-29T06:18:28.962Z,950.8469238
2023-07-29T06:19:29.908Z,950.822998
2023-07-29T06:20:30.955Z,950.8004761
2023-07-29T06:21:32.045Z,950.8067017
2023-07-29T06:22:33.114Z,950.7907104
2023-07-29T06:23:34.185Z,950.7814331
2023-07-29T06:24:35.306Z,950.8013916
2023-07-29T06:25:36.239Z,950.7572632
2023-07-29T06:26:37.591Z,950.7580566
2023-07-29T06:27:38.666Z,950.7508545
2023-07-29T06:28:40.597Z,950.7459106
2023-07-29T06:29:41.692Z,950.7017212
2023-07-29T06:30:42.815Z,950.6843872
2023-07-29T06:31:44.474Z,950.6671753
2023-07-29T06:32:45.522Z,950.645752
2023-07-29T06:33:46.567Z,950.6740723
2023-07-29T06:34:47.697Z,950.696228
2023-07-29T06:35:48.767Z,950.6859131
2023-07-29T06:36:49.905Z,950.7067261
2023-07-29T06:37:50.800Z,950.708252
2023-07-29T06:38:52.582Z,950.666626
2023-07-29T06:39:53.625Z,950.6574707
2023-07-29T06:40:55.467Z,950.5777588
2023-07-29T06:42:27.160Z,950.5811157
2023-07-29T06:43:28.234Z,950.5371704
2023-07-29T06:44:29.191Z,950.5717163
2023-07-29T06:45:30.102Z,950.5667725
2023-07-29T06:46:31.191Z,950.6436157
2023-07-29T06:47:32.199Z,950.6656494
2023-07-29T06:48:33.947Z,950.720459
2023-07-29T06:49:34.885Z,950.7369385
2023-07-29T06:50:35.880Z,950.7853394
2023-07-29T06:51:36.768Z,950.842041
2023-07-29T06:52:37.865Z,950.8806152
2023-07-29T06:53:38.792Z,950.8081055
2023-07-29T06:54:39.884Z,950.8249512
2023-07-29T06:55:40.819Z,950.7982788
2023-07-29T06:56:41.812Z,950.8012695
2023-07-29T06:57:42.821Z,950.8081055
2023-07-29T06:58:44.916Z,950.7948608
2023-07-29T06:59:45.918Z,950.7902832
2023-07-29T07:00:46.905Z,950.7983398
2023-07-29T07:01:48.444Z,950.8215332
2023-07-29T07:02:49.441Z,950.769043
2023-07-29T07:03:50.363Z,950.7296143
2023-07-29T07:04:51.346Z,950.7572632
2023-07-29T07:05:52.295Z,950.7438965
2023-07-29T07:06:53.305Z,950.7271729
2023-07-29T07:07:54.330Z,950.7240601
2023-07-29T07:08:55.901Z,950.6981201
2023-07-29T07:10:27.368Z,950.6790771
2023-07-29T07:11:28.316Z,950.6521606
2023-07-29T07:12:29.297Z,950.6315918
2023-07-29T07:13:30.348Z,950.6286011
2023-07-29T07:14:31.269Z,950.5839233
2023-07-29T07:15:32.189Z,950.635498
2023-07-29T07:16:33.397Z,950.65625
2023-07-29T07:17:34.360Z,950.6293945
2023-07-29T07:18:35.317Z,950.5929565
2023-07-29T07:19:36.915Z,950.5264893
2023-07-29T07:20:38.023Z,950.5237427
2023-07-29T07:21:38.915Z,950.555481
2023-07-29T07:22:39.967Z,950.560791
2023-07-29T07:23:40.960Z,950.5719604
2023-07-29T07:24:42.076Z,950.5427856
2023-07-29T07:25:43.137Z,950.5415649
2023-07-29T07:26:44.252Z,950.5483398
2023-07-29T07:27:45.994Z,950.5689087
2023-07-29T07:28:47.264Z,950.5678711
2023-07-29T07:29:48.178Z,950.6077881
2023-07-29T07:30:49.124Z,950.5931396
2023-07-29T07:31:51.009Z,950.6086426
2023-07-29T07:32:52.085Z,950.6010742
2023-07-29T07:33:53.054Z,950.6098633
2023-07-29T07:34:55.418Z,950.6046753
2023-07-29T07:36:27.003Z,950.6236572
2023-07-29T07:37:28.138Z,950.6417236
2023-07-29T07:38:29.055Z,950.6077881
2023-07-29T07:39:30.988Z,950.6071777
2023-07-29T07:40:31.959Z,950.6125488
2023-07-29T07:41:33.076Z,950.6079712
2023-07-29T07:42:34.117Z,950.5725098
2023-07-29T07:43:35.112Z,950.5892944
2023-07-29T07:44:36.163Z,950.5418091
2023-07-29T07:45:37.244Z,950.5734253
2023-07-29T07:46:38.479Z,950.538147
2023-07-29T07:47:39.351Z,950.5163574
2023-07-29T07:48:40.490Z,950.5261841
2023-07-29T07:49:42.544Z,950.5504761
2023-07-29T07:50:43.560Z,950.5658569
2023-07-29T07:51:44.556Z,950.539856
2023-07-29T07:52:45.564Z,950.5802612
2023-07-29T07:53:46.555Z,950.5635986
2023-07-29T07:54:47.718Z,950.5612793
2023-07-29T07:55:48.660Z,950.5560913
2023-07-29T07:56:49.624Z,950.5692139
2023-07-29T07:57:50.792Z,950.5992432
2023-07-29T07:58:51.745Z,950.5717163
2023-07-29T07:59:53.514Z,950.5471191
2023-07-29T08:00:54.991Z,950.592041
2023-07-29T08:02:27.039Z,950.5598145
2023-07-29T08:03:28.074Z,950.5413818
2023-07-29T08:04:28.889Z,950.5140381
2023-07-29T08:05:30.116Z,950.4840698
2023-07-29T08:06:31.047Z,950.4862671
2023-07-29T08:07:32.969Z,950.4434204
2023-07-29T08:08:33.959Z,950.4396973
2023-07-29T08:09:35.420Z,950.4436035
2023-07-29T08:10:36.327Z,950.4470215
2023-07-29T08:11:37.204Z,950.4590454
2023-07-29T08:12:38.257Z,950.4171753
2023-07-29T08:13:39.366Z,950.3850098
2023-07-29T08:14:40.309Z,950.3543701
2023-07-29T08:15:41.225Z,950.3862305
2023-07-29T08:16:42.233Z,950.3641968
2023-07-29T08:17:44.057Z,950.3775024
2023-07-29T08:18:45.092Z,950.3740845
2023-07-29T08:19:46.861Z,950.3495483
2023-07-29T08:20:47.784Z,950.3800049
2023-07-29T08:21:48.767Z,950.3510132
2023-07-29T08:22:49.800Z,950.3010864
2023-07-29T08:23:50.660Z,950.2295532
2023-07-29T08:24:51.580Z,950.2837524
2023-07-29T08:25:53.464Z,950.2562256
2023-07-29T08:26:54.838Z,950.2977905
2023-07-29T08:28:26.197Z,950.3076782
2023-07-29T08:29:27.914Z,950.2686157
2023-07-29T08:30:28.887Z,950.2310791
2023-07-29T08:31:30.584Z,950.2746582
2023-07-29T08:32:31.523Z,950.2306519
2023-07-29T08:33:32.445Z,950.2573242
2023-07-29T08:34:33.540Z,950.258606
2023-07-29T08:35:34.512Z,950.3057861
2023-07-29T08:36:35.833Z,950.2620239
2023-07-29T08:37:37.422Z,950.2687988
2023-07-29T08:38:38.386Z,950.2443848
2023-07-29T08:39:39.956Z,950.2384644
2023-07-29T08:40:40.854Z,950.2052612
2023-07-29T08:41:41.809Z,950.1763916
2023-07-29T08:42:42.651Z,950.175293
2023-07-29T08:43:43.812Z,950.1412354
2023-07-29T08:44:44.745Z,950.1240845
2023-07-29T08:45:45.687Z,950.1150513
2023-07-29T08:46:46.662Z,950.1199341
2023-07-29T08:47:47.537Z,950.1587524
2023-07-29T08:48:48.557Z,950.1729126
2023-07-29T08:49:50.470Z,950.1176758
2023-07-29T08:50:51.363Z,950.0761719
2023-07-29T08:51:52.332Z,950.0383301
2023-07-29T08:52:53.194Z,950.0527344
2023-07-29T08:53:54.539Z,950.144043
2023-07-29T08:55:25.937Z,950.1334229
2023-07-29T08:56:26.848Z,950.1463013
2023-07-29T08:57:27.790Z,950.1556396
2023-07-29T08:58:28.665Z,950.1681519
2023-07-29T08:59:30.417Z,950.161499
2023-07-29T09:00:31.341Z,950.1461792
2023-07-29T09:01:32.917Z,950.1166992
2023-07-29T09:02:33.988Z,950.145752
2023-07-29T09:03:35.455Z,950.1652832
2023-07-29T09:04:36.369Z,950.1289063
2023-07-29T09:05:37.269Z,950.1887207
2023-07-29T09:06:38.559Z,950.1464233
2023-07-29T09:07:39.105Z,950.1883545
2023-07-29T09:08:39.965Z,950.1135254
2023-07-29T09:09:41.377Z,950.1574707
2023-07-29T09:10:42.932Z,950.1349487
2023-07-29T09:11:44.060Z,950.1386719
2023-07-29T09:12:45.017Z,950.0940552
2023-07-29T09:13:45.877Z,950.1303101
2023-07-29T09:14:46.763Z,950.1340332
2023-07-29T09:15:47.623Z,950.1507568
2023-07-29T09:16:48.585Z,950.1810303
2023-07-29T09:17:49.433Z,950.1751709
2023-07-29T09:18:50.284Z,950.2285767
2023-07-29T09:19:51.929Z,950.2151489
2023-07-29T09:20:52.796Z,950.2837524
2023-07-29T09:21:54.112Z,950.258606
2023-07-29T09:23:25.422Z,950.2210083
2023-07-29T09:24:26.239Z,950.1818848
2023-07-29T09:25:27.275Z,950.1654053
2023-07-29T09:26:28.312Z,950.1037598
2023-07-29T09:27:29.219Z,950.2283325
2023-07-29T09:28:30.148Z,950.085144
2023-07-29T09:29:30.997Z,950.2168579
2023-07-29T09:30:33.026Z,950.156189
2023-07-29T09:31:34.082Z,950.1110229
2023-07-29T09:32:36.093Z,950.1611938
2023-07-29T09:33:36.957Z,950.1462402
2023-07-29T09:34:37.876Z,950.1530762
2023-07-29T09:35:38.751Z,950.2870483
2023-07-29T09:36:40.116Z,950.2589111
2023-07-29T09:37:41.554Z,950.3184204
2023-07-29T09:38:42.622Z,950.2935791
2023-07-29T09:39:43.824Z,950.342041
2023-07-29T09:40:45.416Z,950.3295288
2023-07-29T09:41:48.436Z,950.3311157
2023-07-29T09:42:47.429Z,950.3912354
2023-07-29T09:43:48.507Z,950.4046631
2023-07-29T09:44:49.489Z,950.3599854
2023-07-29T09:45:50.516Z,950.3453369
2023-07-29T09:46:51.484Z,950.2659302
2023-07-29T09:47:52.368Z,950.298584
2023-07-29T09:48:53.314Z,950.3270264
2023-07-29T09:50:25.528Z,950.3743896
2023-07-29T09:51:26.565Z,950.3883057
2023-07-29T09:52:27.481Z,950.382019
2023-07-29T09:53:28.384Z,950.2678223
2023-07-29T09:54:29.373Z,950.2115479
2023-07-29T09:55:30.408Z,950.1990356
2023-07-29T09:56:31.421Z,950.2167358
2023-07-29T09:57:32.527Z,950.1124878
2023-07-29T09:58:33.448Z,950.1983032
2023-07-29T09:59:34.423Z,950.1970825
2023-07-29T10:00:36.032Z,950.2076416
2023-07-29T10:01:38.662Z,950.2512207
2023-07-29T10:02:39.247Z,950.1785889
2023-07-29T10:03:41.124Z,950.2224731
2023-07-29T10:04:41.953Z,950.2125244
2023-07-29T10:05:42.914Z,950.2214966
2023-07-29T10:06:44.321Z,950.2548218
2023-07-29T10:07:45.212Z,950.2438965
2023-07-29T10:08:46.210Z,950.241272
2023-07-29T10:09:47.232Z,950.2913818
2023-07-29T10:10:48.928Z,950.3171997
2023-07-29T10:11:49.824Z,950.2475586
2023-07-29T10:12:50.755Z,950.2254639
2023-07-29T10:14:06.685Z,950.1995239
2023-07-29T10:14:52.802Z,950.1801758
2023-07-29T10:16:24.443Z,950.3148193
2023-07-29T10:17:25.331Z,950.2723999
2023-07-29T10:18:26.325Z,950.3748169
2023-07-29T10:19:27.311Z,950.5257568
2023-07-29T10:20:28.983Z,950.4508057
2023-07-29T10:21:29.986Z,950.2767944
2023-07-29T10:22:30.887Z,950.4619751
2023-07-29T10:23:31.785Z,950.343811
2023-07-29T10:24:32.745Z,950.3157959
2023-07-29T10:25:33.747Z,950.2915649
2023-07-29T10:26:35.059Z,950.3742676
2023-07-29T10:27:35.803Z,950.3057861
2023-07-29T10:28:36.819Z,950.2678833
2023-07-29T10:29:38.536Z,950.2785034
2023-07-29T10:30:39.530Z,950.3242188
2023-07-29T10:31:41.561Z,950.2529907
2023-07-29T10:32:42.654Z,950.2498169
2023-07-29T10:33:44.627Z,950.2287598
2023-07-29T10:34:45.434Z,950.3712769
2023-07-29T10:35:46.362Z,950.1934204
2023-07-29T10:36:47.416Z,950.3460693
2023-07-29T10:37:48.443Z,950.1967773
2023-07-29T10:38:49.482Z,950.1951294
2023-07-29T10:39:50.523Z,950.3387451
2023-07-29T10:40:51.930Z,950.1984253
2023-07-29T10:41:53.250Z,950.2285767
2023-07-29T10:43:24.829Z,950.242981
2023-07-29T10:44:25.957Z,950.1286621
2023-07-29T10:45:27.072Z,950.1130981
2023-07-29T10:46:27.898Z,950.2198486
2023-07-29T10:47:28.865Z,950.1175537
2023-07-29T10:48:29.778Z,950.1593628
2023-07-29T10:49:30.847Z,950.2178345
2023-07-29T10:50:32.474Z,950.088623
2023-07-29T10:51:33.480Z,950.1095581
2023-07-29T10:52:34.370Z,950.0649414
2023-07-29T10:53:35.260Z,950.1896973
2023-07-29T10:54:36.358Z,950.0560913
2023-07-29T10:55:37.303Z,950.0689697
2023-07-29T10:56:39.401Z,950.0687256
2023-07-29T10:57:40.111Z,950.0568237
2023-07-29T10:58:40.992Z,950.0650024
2023-07-29T10:59:41.925Z,950.0429688
2023-07-29T11:00:43.537Z,950.1573486
2023-07-29T11:01:44.672Z,950.1121826
2023-07-29T11:02:46.498Z,950.0236816
2023-07-29T11:03:47.406Z,950.0697021
2023-07-29T11:04:48.295Z,949.975708
2023-07-29T11:05:49.170Z,949.9315796
2023-07-29T11:06:50.121Z,949.973877
2023-07-29T11:07:51.094Z,950.017334
2023-07-29T11:08:52.030Z,950.0114136
2023-07-29T11:10:23.623Z,950.0618896
2023-07-29T11:11:25.408Z,950.0362549
2023-07-29T11:12:26.391Z,950.0910645
2023-07-29T11:13:27.398Z,950.0952148
2023-07-29T11:14:28.434Z,950.0690918
2023-07-29T11:15:29.399Z,950.1503906